Time;durP1;ratioP1;P1;durP2;ratioP2;P2;SDS_P1;SDS_P2;PMS_P1;PMS_P2;Temp;Humidity;BMP_temperature;BMP_pressure;BME280_temperature;BME280_humidity;BME280_pressure;Samples;Min_cycle;Max_cycle;Signal;HPM_P1;HPM_P2
2022/08/10 00:01:50;;;;;;;4.60;2.65;;;22.90;93.90;;;;;;5062511;28;20202;-68
2022/08/10 00:04:20;;;;;;;3.00;2.80;;;22.90;93.90;;;;;;5064785;28;20281;-67
2022/08/10 00:06:52;;;;;;;3.67;2.80;;;22.80;94.10;;;;;;5065602;28;20198;-68
2022/08/10 00:09:20;;;;;;;3.50;2.47;;;22.80;94.10;;;;;;5064399;28;20199;-67
2022/08/10 00:11:47;;;;;;;3.25;2.95;;;22.70;94.30;;;;;;5060663;28;20201;-68
2022/08/10 00:14:14;;;;;;;7.50;2.88;;;22.70;94.10;;;;;;5066660;28;20653;-67
2022/08/10 00:16:40;;;;;;;3.72;2.70;;;22.70;94.30;;;;;;5065646;28;20736;-68
2022/08/10 00:19:07;;;;;;;3.13;2.70;;;22.60;94.30;;;;;;5046042;28;20249;-68
2022/08/10 00:21:35;;;;;;;5.43;2.97;;;22.60;94.80;;;;;;5066441;28;20681;-68
2022/08/10 00:24:02;;;;;;;3.58;2.92;;;22.70;94.30;;;;;;5066573;28;20198;-67
2022/08/10 00:26:29;;;;;;;3.72;3.15;;;22.50;94.50;;;;;;5065754;28;20213;-67
2022/08/10 00:29:16;;;;;;;3.47;2.90;;;22.40;94.70;;;;;;5063869;28;20191;-68
2022/08/10 00:31:43;;;;;;;4.68;2.70;;;22.50;94.50;;;;;;5066246;28;20210;-68
2022/08/10 00:34:24;;;;;;;5.95;3.00;;;22.30;94.70;;;;;;5065771;28;20569;-68
2022/08/10 00:36:51;;;;;;;3.17;2.88;;;22.30;94.70;;;;;;5057534;28;20205;-67
2022/08/10 00:39:17;;;;;;;5.25;3.00;;;22.40;94.60;;;;;;5045815;28;20670;-68
2022/08/10 00:41:44;;;;;;;3.20;2.90;;;22.50;94.50;;;;;;5069861;28;20198;-68
2022/08/10 00:44:27;;;;;;;5.35;3.22;;;22.50;94.60;;;;;;5064551;28;20213;-68
2022/08/10 00:46:54;;;;;;;3.90;2.80;;;22.40;94.70;;;;;;5060995;28;20206;-68
2022/08/10 00:49:21;;;;;;;4.85;2.75;;;22.20;94.90;;;;;;5063884;28;20203;-67
2022/08/10 00:51:48;;;;;;;4.32;3.03;;;22.20;95.00;;;;;;5065961;28;20218;-68
2022/08/10 00:54:15;;;;;;;4.18;3.20;;;22.10;95.20;;;;;;5065890;28;20217;-68
2022/08/10 00:56:51;;;;;;;5.03;3.13;;;22.00;95.60;;;;;;5063749;28;20606;-68
2022/08/10 00:59:38;;;;;;;2.85;2.50;;;21.90;95.50;;;;;;5057533;28;20332;-69
2022/08/10 01:02:24;;;;;;;5.70;3.00;;;21.80;95.90;;;;;;5065711;28;20260;-68
2022/08/10 01:04:52;;;;;;;3.35;2.97;;;21.90;95.70;;;;;;5065106;28;20637;-68
2022/08/10 01:07:44;;;;;;;4.28;2.97;;;21.80;95.70;;;;;;5063873;28;20187;-66
2022/08/10 01:10:33;;;;;;;3.25;2.75;;;21.60;96.20;;;;;;5065537;28;20221;-68
2022/08/10 01:13:16;;;;;;;3.92;3.25;;;21.40;96.30;;;;;;5051385;28;20198;-67
2022/08/10 01:15:51;;;;;;;3.53;2.90;;;21.30;96.90;;;;;;5050123;28;20219;-69
2022/08/10 01:18:29;;;;;;;3.38;2.53;;;21.10;96.90;;;;;;5050547;28;20273;-69
2022/08/10 01:21:22;;;;;;;3.53;2.80;;;21.00;97.20;;;;;;5050457;28;20670;-67
2022/08/10 01:23:57;;;;;;;3.67;2.97;;;21.00;97.30;;;;;;5050441;28;20202;-68
2022/08/10 01:26:39;;;;;;;4.23;2.80;;;20.90;97.60;;;;;;5049916;28;20214;-68
2022/08/10 01:29:35;;;;;;;4.10;3.10;;;20.70;97.90;;;;;;5049819;28;20198;-68
2022/08/10 01:32:04;;;;;;;3.60;2.80;;;20.60;98.20;;;;;;5039455;28;20218;-68
2022/08/10 01:34:38;;;;;;;3.63;2.60;;;20.80;97.60;;;;;;5060599;28;20198;-68
2022/08/10 01:37:10;;;;;;;4.83;2.93;;;20.70;97.90;;;;;;5049998;28;20203;-67
2022/08/10 01:39:47;;;;;;;6.13;2.90;;;20.50;98.50;;;;;;5050163;28;20195;-66
2022/08/10 01:42:17;;;;;;;4.17;2.90;;;20.30;98.40;;;;;;5050287;28;20252;-68
2022/08/10 01:44:56;;;;;;;2.97;2.67;;;20.20;98.70;;;;;;5049511;28;20698;-69
2022/08/10 01:50:36;;;;;;;3.23;2.80;;;20.00;98.90;;;;;;5050201;28;20221;-68
2022/08/10 01:53:27;;;;;;;4.33;2.90;;;19.90;99.20;;;;;;5050257;28;20212;-68
2022/08/10 01:56:07;;;;;;;3.00;2.70;;;19.80;99.30;;;;;;5050064;28;20222;-68
2022/08/10 01:58:35;;;;;;;4.60;2.80;;;19.70;99.50;;;;;;5060774;28;20186;-68
2022/08/10 02:01:06;;;;;;;4.20;2.77;;;19.70;99.80;;;;;;5050012;28;20202;-68
2022/08/10 02:03:35;;;;;;;3.13;2.77;;;19.60;99.90;;;;;;5049857;28;20190;-69
2022/08/10 02:06:26;;;;;;;2.80;2.57;;;19.60;99.90;;;;;;5058794;28;20221;-66
2022/08/10 02:08:54;;;;;;;3.70;3.00;;;19.60;99.90;;;;;;5068660;28;20198;-68
2022/08/10 02:11:34;;;;;;;3.67;3.00;;;19.50;99.90;;;;;;5060520;28;20214;-67
2022/08/10 02:14:23;;;;;;;5.00;2.80;;;19.40;99.90;;;;;;5069442;28;20279;-67
2022/08/10 02:16:51;;;;;;;4.77;2.80;;;19.40;99.90;;;;;;5069754;28;20206;-67
2022/08/10 02:19:22;;;;;;;4.50;3.17;;;19.30;99.90;;;;;;5063764;28;20211;-68
2022/08/10 02:21:51;;;;;;;5.37;3.30;;;19.40;99.90;;;;;;5049710;28;20198;-68
2022/08/10 02:24:41;;;;;;;3.50;3.10;;;19.40;99.90;;;;;;5049370;28;20257;-67
2022/08/10 02:27:10;;;;;;;2.87;2.57;;;19.60;99.90;;;;;;5056316;28;20203;-68
2022/08/10 02:29:39;;;;;;;4.17;3.10;;;19.60;99.90;;;;;;5053519;28;20305;-69
2022/08/10 02:32:10;;;;;;;3.10;2.80;;;19.60;99.90;;;;;;5053543;28;20253;-68
2022/08/10 02:34:38;;;;;;;4.23;3.20;;;19.60;99.90;;;;;;5052979;28;20247;-67
2022/08/10 02:37:08;;;;;;;6.10;3.30;;;19.60;99.90;;;;;;5053185;28;20565;-67
2022/08/10 02:39:37;;;;;;;4.77;2.77;;;19.60;99.90;;;;;;5053448;28;20202;-68
2022/08/10 02:42:14;;;;;;;3.93;3.10;;;19.70;99.90;;;;;;5035871;28;20222;-67
2022/08/10 02:45:05;;;;;;;5.77;3.20;;;19.80;99.80;;;;;;5053229;28;20272;-68
2022/08/10 02:47:58;;;;;;;3.17;2.80;;;19.90;99.70;;;;;;5053046;28;20576;-67
2022/08/10 02:50:31;;;;;;;3.83;2.97;;;20.10;99.50;;;;;;5053298;28;20276;-67
2022/08/10 02:53:27;;;;;;;3.33;2.80;;;20.10;99.50;;;;;;5053108;28;20709;-67
2022/08/10 02:56:22;;;;;;;3.37;2.67;;;20.00;99.40;;;;;;5052903;28;20276;-68
2022/08/10 02:59:04;;;;;;;9.13;3.33;;;20.00;99.40;;;;;;5053264;28;20194;-68
2022/08/10 03:01:35;;;;;;;5.40;2.87;;;19.90;99.90;;;;;;5053118;28;20206;-68
2022/08/10 03:04:05;;;;;;;3.10;2.70;;;19.80;99.90;;;;;;5052910;28;20198;-68
2022/08/10 03:06:37;;;;;;;3.97;2.80;;;19.70;99.90;;;;;;5052574;28;20228;-68
2022/08/10 03:09:08;;;;;;;4.23;3.10;;;19.50;99.90;;;;;;5052989;28;20191;-68
2022/08/10 03:11:39;;;;;;;3.10;2.80;;;19.60;99.90;;;;;;5052947;28;20215;-68
2022/08/10 03:14:27;;;;;;;5.73;3.23;;;19.40;99.90;;;;;;5052722;28;20199;-67
2022/08/10 03:16:56;;;;;;;4.50;3.10;;;19.30;99.90;;;;;;5052596;28;20287;-68
2022/08/10 03:19:24;;;;;;;2.93;2.63;;;19.10;99.90;;;;;;5052956;28;20187;-67
2022/08/10 03:22:11;;;;;;;3.30;3.00;;;19.00;99.90;;;;;;5053468;28;20195;-68
2022/08/10 03:24:40;;;;;;;3.77;2.70;;;18.90;99.90;;;;;;5052714;28;20202;-68
2022/08/10 03:27:07;;;;;;;3.53;2.80;;;18.80;99.90;;;;;;5052785;28;20202;-67
2022/08/10 03:29:36;;;;;;;3.47;2.90;;;18.80;99.90;;;;;;5052690;28;20226;-67
2022/08/10 03:32:24;;;;;;;3.40;3.10;;;18.70;99.90;;;;;;5054126;28;20215;-67
2022/08/10 03:34:52;;;;;;;3.10;2.77;;;18.60;99.90;;;;;;5052115;28;20591;-67
2022/08/10 03:37:19;;;;;;;3.77;2.90;;;18.60;99.90;;;;;;5052379;28;20264;-68
2022/08/10 03:39:46;;;;;;;3.93;2.80;;;18.60;99.90;;;;;;5053910;28;20244;-67
2022/08/10 03:42:15;;;;;;;4.33;2.80;;;18.50;99.90;;;;;;5052560;28;20191;-68
2022/08/10 03:44:42;;;;;;;4.93;3.07;;;18.50;99.90;;;;;;5052057;28;20222;-67
2022/08/10 03:47:17;;;;;;;4.97;3.27;;;18.50;99.90;;;;;;5052263;28;20712;-67
2022/08/10 03:49:47;;;;;;;3.70;2.73;;;18.40;99.90;;;;;;5052343;28;20195;-68
2022/08/10 03:52:15;;;;;;;3.60;3.10;;;18.40;99.90;;;;;;5051865;28;20211;-68
2022/08/10 03:54:43;;;;;;;3.50;2.93;;;18.30;99.90;;;;;;5051799;28;20226;-67
2022/08/10 03:57:10;;;;;;;3.10;2.77;;;18.30;99.90;;;;;;5052262;28;20393;-68
2022/08/10 03:59:37;;;;;;;5.67;3.07;;;18.20;99.90;;;;;;5034340;28;20209;-68
2022/08/10 04:02:07;;;;;;;3.47;2.90;;;18.20;99.90;;;;;;5052080;28;20260;-67
2022/08/10 04:04:54;;;;;;;5.37;3.30;;;18.20;99.90;;;;;;5051756;28;21062;-67
2022/08/10 04:07:20;;;;;;;4.73;3.23;;;18.10;99.90;;;;;;5051619;28;20724;-68
2022/08/10 04:09:47;;;;;;;3.20;2.80;;;18.10;99.90;;;;;;5051780;28;20203;-67
2022/08/10 04:12:23;;;;;;;5.63;3.30;;;18.10;99.90;;;;;;5051890;28;20300;-67
2022/08/10 04:14:49;;;;;;;6.90;2.93;;;18.10;99.90;;;;;;5051546;28;20222;-67
2022/08/10 04:17:20;;;;;;;5.70;3.07;;;18.10;99.90;;;;;;5051557;28;20199;-67
2022/08/10 04:20:15;;;;;;;4.33;3.43;;;18.10;99.90;;;;;;5051427;28;20571;-67
2022/08/10 04:22:43;;;;;;;4.00;3.17;;;18.20;99.90;;;;;;5051414;28;20202;-68
2022/08/10 04:25:13;;;;;;;4.10;3.40;;;18.20;99.90;;;;;;5034355;28;20230;-67
2022/08/10 04:27:40;;;;;;;3.53;3.20;;;18.30;99.90;;;;;;5051254;28;20235;-67
2022/08/10 04:30:08;;;;;;;5.23;3.20;;;18.30;99.90;;;;;;5051412;28;20225;-67
2022/08/10 04:32:35;;;;;;;3.47;3.17;;;18.30;99.90;;;;;;5051231;28;20222;-67
2022/08/10 04:35:05;;;;;;;3.60;3.23;;;18.30;99.90;;;;;;5050966;28;20653;-67
2022/08/10 04:37:33;;;;;;;4.20;3.03;;;18.30;99.90;;;;;;5051029;28;20593;-68
2022/08/10 04:40:00;;;;;;;4.43;3.10;;;18.30;99.90;;;;;;5051002;28;20187;-66
2022/08/10 04:42:27;;;;;;;6.90;3.43;;;18.30;99.90;;;;;;5050978;28;20191;-67
2022/08/10 04:44:53;;;;;;;4.53;3.43;;;18.40;99.90;;;;;;5050965;28;20219;-67
2022/08/10 04:47:20;;;;;;;4.17;3.00;;;18.50;99.90;;;;;;5050232;28;20199;-68
2022/08/10 04:50:07;;;;;;;4.60;2.90;;;18.50;99.90;;;;;;5051117;28;20195;-67
2022/08/10 04:52:35;;;;;;;4.70;2.93;;;18.70;99.90;;;;;;5050575;28;20237;-67
2022/08/10 04:55:03;;;;;;;3.90;3.00;;;18.70;99.90;;;;;;5050742;28;20261;-67
2022/08/10 04:57:29;;;;;;;5.30;2.93;;;18.70;99.90;;;;;;5050364;28;20197;-67
2022/08/10 04:59:56;;;;;;;3.60;2.80;;;18.70;99.90;;;;;;5070897;28;20198;-67
2022/08/10 05:02:23;;;;;;;3.00;2.70;;;18.70;99.90;;;;;;5070869;28;20228;-67
2022/08/10 05:04:58;;;;;;;4.30;3.17;;;18.70;99.90;;;;;;5050211;28;20214;-67
2022/08/10 05:07:24;;;;;;;3.27;2.70;;;18.70;99.90;;;;;;5050528;28;20581;-67
2022/08/10 05:09:53;;;;;;;3.47;3.17;;;18.80;99.90;;;;;;5050814;28;20195;-67
2022/08/10 05:12:40;;;;;;;5.20;2.90;;;18.80;99.90;;;;;;5050611;28;20214;-67
2022/08/10 05:15:09;;;;;;;4.10;3.20;;;18.90;99.90;;;;;;5038796;28;20210;-67
2022/08/10 05:17:37;;;;;;;3.47;3.00;;;18.90;99.90;;;;;;5050456;28;20290;-67
2022/08/10 05:20:06;;;;;;;5.83;3.20;;;19.00;99.90;;;;;;5050692;28;20191;-66
2022/08/10 05:22:38;;;;;;;5.60;2.90;;;19.20;99.90;;;;;;5050293;28;20244;-67
2022/08/10 05:25:08;;;;;;;4.53;3.03;;;19.20;99.90;;;;;;5050188;28;20276;-67
2022/08/10 05:27:35;;;;;;;6.33;3.10;;;19.40;99.90;;;;;;5050365;28;20201;-67
2022/08/10 05:30:04;;;;;;;3.13;2.80;;;19.50;99.90;;;;;;5050459;28;20245;-67
2022/08/10 05:32:32;;;;;;;4.23;3.20;;;19.50;99.90;;;;;;5050310;28;20295;-66
2022/08/10 05:35:20;;;;;;;6.40;3.40;;;19.60;99.90;;;;;;5035291;28;20215;-67
2022/08/10 05:37:47;;;;;;;4.47;3.00;;;19.70;99.90;;;;;;5050173;28;20202;-68
2022/08/10 05:40:36;;;;;;;3.17;2.87;;;19.70;99.90;;;;;;5050179;28;20681;-67
2022/08/10 05:43:04;;;;;;;5.73;2.70;;;19.90;99.90;;;;;;5050061;28;20727;-68
2022/08/10 05:45:30;;;;;;;3.97;3.13;;;20.10;99.90;;;;;;5066744;28;20216;-68
2022/08/10 05:47:57;;;;;;;4.83;3.00;;;20.30;99.90;;;;;;5064011;28;20199;-68
2022/08/10 05:50:44;;;;;;;4.40;3.43;;;20.50;99.90;;;;;;5049930;28;20202;-68
2022/08/10 05:53:10;;;;;;;4.17;3.20;;;21.00;99.90;;;;;;5050196;28;20211;-67
2022/08/10 05:55:58;;;;;;;4.53;3.00;;;21.40;99.90;;;;;;5049283;28;20413;-68
2022/08/10 05:58:26;;;;;;;3.20;2.80;;;21.60;99.90;;;;;;5050254;28;20328;-67
2022/08/10 06:00:55;;;;;;;3.78;3.00;;;21.60;99.90;;;;;;5032071;28;20194;-69
2022/08/10 06:03:26;;;;;;;3.20;2.72;;;21.70;99.90;;;;;;5049475;28;20195;-68
2022/08/10 06:05:55;;;;;;;3.88;3.20;;;21.80;99.90;;;;;;5049562;28;20213;-68
2022/08/10 06:08:30;;;;;;;6.65;3.28;;;21.90;99.90;;;;;;5050103;28;20420;-67
2022/08/10 06:11:00;;;;;;;3.45;2.95;;;21.80;99.90;;;;;;5049672;28;20567;-68
2022/08/10 06:16:41;;;;;;;5.40;3.08;;;22.00;99.90;;;;;;5049636;28;20310;-67
2022/08/10 06:19:10;;;;;;;4.13;3.15;;;22.20;99.90;;;;;;5050056;28;20191;-68
2022/08/10 06:21:40;;;;;;;5.68;3.00;;;22.30;99.80;;;;;;5049686;28;20286;-68
2022/08/10 06:24:31;;;;;;;3.65;3.30;;;22.50;99.40;;;;;;5049809;28;20233;-68
2022/08/10 06:26:58;;;;;;;5.15;3.00;;;22.70;99.10;;;;;;5050500;28;20540;-69
2022/08/10 06:29:28;;;;;;;5.35;3.00;;;22.80;99.00;;;;;;5050273;28;20195;-68
2022/08/10 06:31:56;;;;;;;7.75;3.00;;;22.80;98.80;;;;;;5050183;28;20215;-68
2022/08/10 06:34:32;;;;;;;6.45;3.20;;;22.90;98.60;;;;;;5049917;28;20419;-68
2022/08/10 06:37:03;;;;;;;5.78;3.08;;;23.10;98.20;;;;;;5050305;28;20199;-69
2022/08/10 06:39:30;;;;;;;4.40;2.90;;;23.20;98.50;;;;;;5051378;28;20187;-67
2022/08/10 06:42:13;;;;;;;4.43;2.90;;;23.40;98.20;;;;;;5050198;28;20194;-67
2022/08/10 06:44:55;;;;;;;5.68;3.42;;;23.40;97.70;;;;;;5049840;28;20218;-67
2022/08/10 06:47:32;;;;;;;8.32;2.90;;;23.60;97.40;;;;;;5050114;28;20199;-67
2022/08/10 06:50:04;;;;;;;3.90;3.00;;;23.60;97.50;;;;;;5049816;28;20221;-68
2022/08/10 06:52:35;;;;;;;6.80;3.13;;;23.80;97.30;;;;;;5049992;28;20301;-68
2022/08/10 06:55:04;;;;;;;4.45;3.08;;;23.80;97.10;;;;;;5049537;28;20253;-68
2022/08/10 06:57:37;;;;;;;6.30;3.05;;;24.00;96.90;;;;;;5049723;28;20282;-68
2022/08/10 07:00:05;;;;;;;6.13;3.30;;;24.00;97.00;;;;;;5049743;28;20195;-66
2022/08/10 07:02:54;;;;;;;3.67;2.85;;;24.10;97.00;;;;;;5049579;28;20203;-68
2022/08/10 07:05:25;;;;;;;4.93;2.85;;;24.20;96.40;;;;;;5049436;28;20306;-69
2022/08/10 07:07:56;;;;;;;10.63;3.13;;;24.50;96.20;;;;;;5049326;28;20199;-69
2022/08/10 07:10:25;;;;;;;8.65;2.90;;;24.80;96.10;;;;;;5050189;28;20211;-69
2022/08/10 07:13:13;;;;;;;5.35;2.50;;;25.20;95.30;;;;;;5053352;28;20574;-69
2022/08/10 07:15:42;;;;;;;3.65;3.03;;;25.90;95.00;;;;;;5052526;28;20272;-69
2022/08/10 07:18:26;;;;;;;3.35;2.80;;;26.30;94.10;;;;;;5053376;28;20207;-68
2022/08/10 07:20:57;;;;;;;5.47;2.67;;;26.70;93.80;;;;;;5052923;28;20203;-69
2022/08/10 07:23:25;;;;;;;3.53;2.70;;;27.00;93.60;;;;;;5052822;28;20603;-68
2022/08/10 07:26:13;;;;;;;6.97;2.72;;;27.10;93.10;;;;;;5052642;28;20222;-68
2022/08/10 07:28:41;;;;;;;11.57;3.00;;;27.00;93.40;;;;;;5052811;28;20202;-69
2022/08/10 07:31:21;;;;;;;5.50;3.25;;;27.30;93.40;;;;;;5053185;28;20199;-68
2022/08/10 07:34:10;;;;;;;3.63;2.40;;;27.50;93.10;;;;;;5037999;28;20195;-69
2022/08/10 07:36:38;;;;;;;2.85;2.47;;;27.50;92.60;;;;;;5052573;28;20222;-69
2022/08/10 07:39:06;;;;;;;6.82;2.67;;;27.40;92.70;;;;;;5052397;28;20269;-68
2022/08/10 07:41:36;;;;;;;4.78;2.78;;;27.40;92.80;;;;;;5068512;28;20711;-69
2022/08/10 07:44:05;;;;;;;9.65;3.20;;;27.40;92.70;;;;;;5072485;28;20190;-66
2022/08/10 07:46:33;;;;;;;6.50;2.65;;;27.60;92.80;;;;;;5072351;28;20217;-68
2022/08/10 07:49:06;;;;;;;8.10;2.70;;;27.80;92.30;;;;;;5052485;28;20214;-68
2022/08/10 07:51:46;;;;;;;5.50;2.78;;;27.90;92.10;;;;;;5051925;28;20302;-68
2022/08/10 07:54:22;;;;;;;5.03;2.70;;;28.00;92.10;;;;;;5052027;28;20195;-69
2022/08/10 07:56:54;;;;;;;11.85;3.00;;;28.00;92.80;;;;;;5052151;28;20286;-68
2022/08/10 07:59:36;;;;;;;11.00;3.10;;;28.10;92.20;;;;;;5052283;28;20206;-68
2022/08/10 08:02:06;;;;;;;9.07;2.58;;;28.30;92.00;;;;;;5052086;28;20218;-68
2022/08/10 08:04:35;;;;;;;4.78;2.25;;;28.40;92.30;;;;;;5051669;28;20295;-69
2022/08/10 08:07:03;;;;;;;4.45;2.40;;;28.40;91.80;;;;;;5055822;28;20191;-68
2022/08/10 08:09:32;;;;;;;4.63;2.35;;;28.40;92.00;;;;;;5051709;28;20229;-70
2022/08/10 08:12:00;;;;;;;3.47;2.35;;;28.30;91.60;;;;;;5051408;28;20218;-68
2022/08/10 08:14:28;;;;;;;7.10;2.90;;;28.20;91.80;;;;;;5051110;28;20202;-69
2022/08/10 08:16:58;;;;;;;7.18;2.80;;;28.30;92.00;;;;;;5051134;28;20206;-70
2022/08/10 08:19:25;;;;;;;6.57;2.50;;;28.40;91.80;;;;;;5051369;28;20249;-68
2022/08/10 08:22:05;;;;;;;4.65;2.63;;;28.50;91.80;;;;;;5051556;28;20301;-68
2022/08/10 08:24:55;;;;;;;5.97;2.45;;;28.50;91.40;;;;;;5050980;28;20222;-69
2022/08/10 08:27:24;;;;;;;2.58;2.10;;;28.20;91.80;;;;;;5051678;28;20199;-69
2022/08/10 08:29:52;;;;;;;18.70;3.20;;;28.30;92.20;;;;;;5051290;28;20225;-69
2022/08/10 08:32:25;;;;;;;3.65;2.50;;;28.30;91.90;;;;;;5051427;28;20226;-68
2022/08/10 08:34:55;;;;;;;11.98;2.50;;;28.10;91.70;;;;;;5050579;28;20218;-69
2022/08/10 08:37:26;;;;;;;7.85;2.30;;;28.10;91.90;;;;;;5051109;28;20191;-67
2022/08/10 08:40:17;;;;;;;10.48;2.63;;;28.20;91.80;;;;;;5051185;28;20203;-69
2022/08/10 08:42:54;;;;;;;6.22;2.50;;;28.30;91.90;;;;;;5050776;28;20260;-68
2022/08/10 08:45:36;;;;;;;2.83;2.20;;;28.30;91.80;;;;;;5050978;28;20211;-68
2022/08/10 08:48:59;;;;;;;2.72;1.85;;;28.30;91.60;;;;;;5051002;28;20198;-68
2022/08/10 08:51:47;;;;;;;3.30;2.20;;;28.30;91.90;;;;;;5051091;28;20673;-68
2022/08/10 08:55:03;;;;;;;5.22;2.40;;;28.20;91.80;;;;;;5050854;28;20252;-69
2022/08/10 08:58:14;;;;;;;3.83;2.20;;;28.00;91.90;;;;;;5050874;28;20615;-69
2022/08/10 09:01:18;;;;;;;2.83;2.10;;;27.90;91.80;;;;;;5049968;28;20194;-67
2022/08/10 09:04:00;;;;;;;4.45;2.55;;;28.00;91.80;;;;;;5050635;28;20195;-68
2022/08/10 09:06:57;;;;;;;4.38;2.35;;;28.10;91.70;;;;;;5050138;28;20215;-69
2022/08/10 09:09:45;;;;;;;3.75;2.20;;;28.30;91.80;;;;;;5057791;28;20286;-68
2022/08/10 09:12:21;;;;;;;5.20;2.50;;;28.20;91.30;;;;;;5050465;28;20670;-68
2022/08/10 09:15:03;;;;;;;3.67;2.20;;;28.00;91.50;;;;;;5050324;28;20218;-67
2022/08/10 09:18:07;;;;;;;5.95;2.15;;;28.00;91.70;;;;;;5050199;28;20199;-69
2022/08/10 09:20:43;;;;;;;3.90;2.40;;;28.10;92.00;;;;;;5041016;28;20708;-69
2022/08/10 09:23:25;;;;;;;5.13;2.20;;;28.40;91.80;;;;;;5050448;28;20256;-68
2022/08/10 09:26:30;;;;;;;3.20;2.20;;;28.70;91.50;;;;;;5050299;28;20217;-69
2022/08/10 09:29:00;;;;;;;4.38;2.80;;;28.80;91.00;;;;;;5051250;28;20191;-68
2022/08/10 09:31:49;;;;;;;2.38;2.10;;;29.00;91.10;;;;;;5050311;28;20195;-69
2022/08/10 09:35:00;;;;;;;2.40;2.10;;;29.20;90.70;;;;;;5049614;28;20187;-69
2022/08/10 09:37:57;;;;;;;4.40;2.80;;;29.50;90.60;;;;;;5060407;28;20197;-69
2022/08/10 09:40:37;;;;;;;5.43;2.50;;;29.20;90.50;;;;;;5070035;28;20197;-69
2022/08/10 09:43:27;;;;;;;5.03;2.40;;;29.30;90.50;;;;;;5070020;28;20209;-69
2022/08/10 09:46:19;;;;;;;2.90;2.55;;;29.40;90.60;;;;;;5068747;28;20214;-69
2022/08/10 09:49:10;;;;;;;6.88;2.28;;;29.50;90.30;;;;;;5070337;28;20261;-69
2022/08/10 09:51:59;;;;;;;3.45;2.30;;;29.30;90.10;;;;;;5070321;28;20592;-68
2022/08/10 09:55:00;;;;;;;2.65;2.28;;;29.10;90.30;;;;;;5059992;28;20202;-68
2022/08/10 09:57:48;;;;;;;3.55;2.35;;;28.80;90.70;;;;;;5050305;28;20187;-68
2022/08/10 10:00:25;;;;;;;6.30;2.53;;;28.60;90.90;;;;;;5050167;28;20222;-69
2022/08/10 10:03:12;;;;;;;3.75;2.42;;;28.50;91.00;;;;;;5049606;28;20197;-68
2022/08/10 10:06:27;;;;;;;4.70;2.20;;;28.70;90.80;;;;;;5049813;28;20215;-68
2022/08/10 10:08:57;;;;;;;5.43;2.17;;;29.10;90.40;;;;;;5049901;28;20264;-68
2022/08/10 10:11:51;;;;;;;2.25;2.05;;;29.30;89.80;;;;;;5050582;28;20194;-69
2022/08/10 10:17:50;;;;;;;3.55;2.30;;;29.10;89.60;;;;;;5049803;28;20272;-68
2022/08/10 10:20:39;;;;;;;2.92;2.08;;;29.00;89.20;;;;;;5050144;28;20191;-69
2022/08/10 10:23:24;;;;;;;3.60;1.95;;;28.90;90.10;;;;;;5049872;28;20198;-69
2022/08/10 10:26:18;;;;;;;4.13;2.13;;;29.20;89.60;;;;;;5049414;28;20230;-69
2022/08/10 10:29:17;;;;;;;4.10;1.90;;;29.40;88.80;;;;;;5049785;28;20199;-69
2022/08/10 10:32:20;;;;;;;3.08;2.40;;;29.60;87.70;;;;;;5050242;28;20668;-69
2022/08/10 10:34:54;;;;;;;3.35;2.05;;;29.90;87.30;;;;;;5049236;28;20226;-69
2022/08/10 10:37:23;;;;;;;3.08;2.20;;;30.20;87.70;;;;;;5049613;28;20576;-69
2022/08/10 10:40:12;;;;;;;5.30;2.10;;;30.20;85.10;;;;;;5049842;28;20187;-69
2022/08/10 10:43:13;;;;;;;2.55;2.20;;;30.20;84.30;;;;;;5049349;28;20607;-69
2022/08/10 10:45:57;;;;;;;6.32;2.47;;;30.30;84.40;;;;;;5049680;28;20224;-69
2022/08/10 10:48:40;;;;;;;2.85;2.30;;;30.40;84.20;;;;;;5053590;28;20198;-68
2022/08/10 10:51:27;;;;;;;6.88;2.28;;;30.20;85.70;;;;;;5053221;28;20195;-67
2022/08/10 10:54:06;;;;;;;3.15;2.20;;;30.40;83.60;;;;;;5053084;28;20219;-67
2022/08/10 10:57:04;;;;;;;3.00;2.10;;;30.50;83.80;;;;;;5052860;28;20214;-68
2022/08/10 10:59:50;;;;;;;3.47;2.30;;;30.40;84.10;;;;;;5053331;28;20191;-69
2022/08/10 11:02:47;;;;;;;4.95;2.10;;;30.20;84.90;;;;;;5053362;28;20215;-69
2022/08/10 11:05:19;;;;;;;3.65;2.47;;;30.10;85.30;;;;;;5034873;28;20214;-69
2022/08/10 11:07:46;;;;;;;3.22;2.30;;;30.10;83.90;;;;;;5053108;28;20260;-68
2022/08/10 11:10:24;;;;;;;3.47;2.38;;;30.00;83.90;;;;;;5053011;28;20222;-68
2022/08/10 11:13:11;;;;;;;3.63;2.40;;;30.00;84.20;;;;;;5052823;28;20214;-68
2022/08/10 11:16:05;;;;;;;3.08;2.60;;;29.90;85.10;;;;;;5052447;28;20532;-67
2022/08/10 11:18:44;;;;;;;4.05;2.72;;;29.80;84.90;;;;;;5053493;28;20190;-68
2022/08/10 11:21:26;;;;;;;2.60;2.40;;;29.70;85.00;;;;;;5052433;28;20193;-69
2022/08/10 11:24:02;;;;;;;5.25;2.40;;;29.80;85.20;;;;;;5052326;28;20245;-68
2022/08/10 11:26:56;;;;;;;3.45;2.30;;;29.90;84.80;;;;;;5038004;28;20554;-68
2022/08/10 11:29:37;;;;;;;2.85;2.55;;;30.20;85.40;;;;;;5052688;28;20195;-69
2022/08/10 11:32:24;;;;;;;2.35;2.15;;;30.40;84.50;;;;;;5052746;28;20225;-69
2022/08/10 11:35:10;;;;;;;4.22;2.30;;;30.40;84.40;;;;;;5062282;28;20217;-69
2022/08/10 11:38:06;;;;;;;3.90;2.50;;;30.20;84.30;;;;;;5060051;28;20198;-69
2022/08/10 11:41:03;;;;;;;3.53;2.40;;;30.00;84.20;;;;;;5071529;28;20206;-68
2022/08/10 11:44:09;;;;;;;5.45;2.58;;;29.80;85.10;;;;;;5072379;28;20260;-69
2022/08/10 11:46:43;;;;;;;3.58;2.42;;;30.10;84.50;;;;;;5060473;28;20570;-69
2022/08/10 11:49:16;;;;;;;5.47;2.65;;;30.20;83.20;;;;;;5071995;28;20198;-69
2022/08/10 11:51:55;;;;;;;4.00;2.70;;;30.40;84.30;;;;;;5072342;28;20203;-69
2022/08/10 11:54:32;;;;;;;3.00;2.63;;;30.50;84.80;;;;;;5064547;28;20217;-69
2022/08/10 11:56:59;;;;;;;3.67;2.47;;;30.30;85.10;;;;;;5072273;28;20190;-69
2022/08/10 12:02:45;;;;;;;3.95;2.80;;;30.50;85.30;;;;;;5066722;28;20244;-68
2022/08/10 12:05:19;;;;;;;2.65;2.22;;;30.50;84.00;;;;;;5052029;28;20215;-69
2022/08/10 12:07:56;;;;;;;5.65;2.20;;;30.60;84.40;;;;;;5052186;28;20457;-68
2022/08/10 12:10:43;;;;;;;4.47;2.40;;;30.60;83.50;;;;;;5051766;28;20195;-68
2022/08/10 12:13:28;;;;;;;2.58;2.38;;;30.50;83.30;;;;;;5051864;28;20214;-68
2022/08/10 12:16:01;;;;;;;4.15;2.33;;;30.40;84.20;;;;;;5051225;28;20226;-68
2022/08/10 12:18:45;;;;;;;3.45;2.38;;;30.50;83.80;;;;;;5051610;28;20658;-68
2022/08/10 12:21:17;;;;;;;4.13;2.13;;;30.50;83.30;;;;;;5054571;28;20202;-69
2022/08/10 12:23:59;;;;;;;3.33;2.47;;;30.40;82.20;;;;;;5071337;28;20193;-69
2022/08/10 12:27:06;;;;;;;3.78;2.78;;;30.50;82.20;;;;;;5051004;28;20214;-69
2022/08/10 12:29:57;;;;;;;3.50;2.20;;;30.60;82.30;;;;;;5033682;28;20198;-68
2022/08/10 12:32:42;;;;;;;3.17;2.33;;;30.70;81.40;;;;;;5052143;28;20194;-68
2022/08/10 12:35:21;;;;;;;10.38;2.53;;;30.80;80.20;;;;;;5050709;28;20260;-69
2022/08/10 12:38:02;;;;;;;2.72;2.50;;;31.10;80.10;;;;;;5051503;28;20195;-69
2022/08/10 12:40:35;;;;;;;2.92;2.30;;;31.30;79.10;;;;;;5051187;28;20191;-68
2022/08/10 12:43:13;;;;;;;6.75;2.33;;;31.50;78.90;;;;;;5050960;28;20206;-69
2022/08/10 12:46:05;;;;;;;2.33;2.10;;;31.70;79.20;;;;;;5050753;28;20219;-69
2022/08/10 12:49:01;;;;;;;3.28;2.20;;;31.50;78.70;;;;;;5050991;28;20221;-70
2022/08/10 12:51:32;;;;;;;2.78;2.17;;;31.50;78.70;;;;;;5051017;28;20191;-68
2022/08/10 12:54:20;;;;;;;4.05;2.08;;;31.40;79.60;;;;;;5050688;28;20211;-69
2022/08/10 12:57:02;;;;;;;3.25;2.20;;;31.40;80.60;;;;;;5050867;28;20202;-69
2022/08/10 12:59:31;;;;;;;4.78;2.78;;;31.50;78.70;;;;;;5050934;28;20191;-69
2022/08/10 13:01:59;;;;;;;4.97;2.20;;;31.40;78.90;;;;;;5050439;28;20724;-69
2022/08/10 13:04:38;;;;;;;3.72;2.38;;;31.40;78.50;;;;;;5050443;28;20194;-68
2022/08/10 13:07:06;;;;;;;2.72;2.10;;;31.50;79.00;;;;;;5050584;28;20194;-68
2022/08/10 13:09:33;;;;;;;4.45;2.47;;;31.60;78.80;;;;;;5049918;28;20616;-68
2022/08/10 13:12:21;;;;;;;7.82;2.38;;;31.50;78.80;;;;;;5050386;28;20202;-68
2022/08/10 13:15:22;;;;;;;21.52;3.17;;;31.60;78.70;;;;;;5050383;28;20238;-69
2022/08/10 13:18:11;;;;;;;5.00;2.20;;;31.70;79.50;;;;;;5052364;28;20202;-69
2022/08/10 13:20:50;;;;;;;3.80;2.25;;;31.80;78.20;;;;;;5052617;28;20249;-69
2022/08/10 13:23:25;;;;;;;6.30;2.33;;;31.90;78.60;;;;;;5070404;28;20568;-69
2022/08/10 13:25:55;;;;;;;2.35;2.13;;;32.00;78.20;;;;;;5070409;28;20248;-68
2022/08/10 13:28:48;;;;;;;3.53;1.90;;;31.90;78.10;;;;;;5050519;28;20202;-68
2022/08/10 13:31:18;;;;;;;4.35;2.40;;;31.80;77.10;;;;;;5050415;28;20234;-69
2022/08/10 13:33:51;;;;;;;5.80;2.20;;;31.70;77.30;;;;;;5051958;28;20784;-68
2022/08/10 13:36:40;;;;;;;6.32;2.30;;;31.50;77.30;;;;;;5050128;28;20218;-68
2022/08/10 13:39:07;;;;;;;6.68;2.30;;;31.40;76.90;;;;;;5050409;28;20191;-68
2022/08/10 13:41:39;;;;;;;3.53;2.40;;;31.20;76.50;;;;;;5050357;28;20222;-68
2022/08/10 13:44:08;;;;;;;2.85;2.10;;;31.20;77.50;;;;;;5049961;28;20203;-68
2022/08/10 13:46:38;;;;;;;4.85;2.03;;;31.00;76.90;;;;;;5049930;28;20217;-68
2022/08/10 13:49:07;;;;;;;16.95;3.47;;;31.10;77.90;;;;;;5050054;28;20199;-68
2022/08/10 13:51:37;;;;;;;5.25;2.30;;;31.40;78.30;;;;;;5049856;28;20199;-69